EFTP

Tampere-Pirkkala Airport

Tampere / Pirkkala, Finland
METAR EFTP 191120Z 21011KT 9999 -RA FEW013 BKN020 17/15 Q1003
Observed Flight Rules
Sep-19 @ 11:20 UTC (30 minutes ago) Marginal Visual Flight Rules
Wind Visibility Clouds Conditions
210° at 11 knots 10,000+ meters
  • Few at 1,300' AGL
  • Broken at 2,000' AGL
  • Light Rain
Temperatures Readings
Current 17°C / 63°F
Dewpoint 15°C / 59°F
Humidity 88%
Altimeter 29.62" Hg
Pressure 1003 hPa
Elevation 112
METAR EFTP 191120Z 21011KT 9999 -RA FEW013 BKN020 17/15 Q1003
Observed Flight Rules
Sep-19 @ 11:20 UTC
(30 minutes ago)
MVFR
Wind Visibility
210° at 11 knots 10,000+ meters
Clouds
  • Few at 1,300' AGL
  • Broken at 2,000' AGL
Conditions
  • Light Rain
Temperature Dewpoint
17°C / 63°F 15°C / 59°F
Humidity Altimeter Pressure
88% 29.62" Hg 1003 hPa